Time;durP1;ratioP1;P1;durP2;ratioP2;P2;SDS_P1;SDS_P2;PMS_P1;PMS_P2;Temp;Humidity;BMP_temperature;BMP_pressure;BME280_temperature;BME280_humidity;BME280_pressure;Samples;Min_cycle;Max_cycle;Signal;HPM_P1;HPM_P2
2024/04/02 00:01:17;;;;;;;14.85;7.18;;;;;;;7.69;100.00;99073.88;4984821;28;20436;-83
2024/04/02 00:03:44;;;;;;;15.55;7.30;;;;;;;7.65;100.00;99075.59;4984923;28;20425;-82
2024/04/02 00:06:12;;;;;;;13.63;7.13;;;;;;;7.70;100.00;99082.81;4969467;28;20459;-83
2024/04/02 00:08:38;;;;;;;15.27;6.55;;;;;;;7.74;100.00;99083.81;4979266;28;20426;-82
2024/04/02 00:11:07;;;;;;;14.43;6.63;;;;;;;7.58;100.00;99083.31;4983682;28;20769;-82
2024/04/02 00:13:34;;;;;;;11.95;6.30;;;;;;;7.61;100.00;99086.22;4999575;28;20435;-82
2024/04/02 00:16:02;;;;;;;12.20;5.90;;;;;;;7.55;100.00;99086.63;4984240;28;20781;-81
2024/04/02 00:18:29;;;;;;;16.23;6.30;;;;;;;7.54;100.00;99088.53;4971063;28;20917;-83
2024/04/02 00:21:00;;;;;;;13.40;6.07;;;;;;;7.58;100.00;99081.41;4984776;28;20442;-82
2024/04/02 00:23:27;;;;;;;14.50;6.28;;;;;;;7.63;100.00;99083.22;4983786;28;20420;-82
2024/04/02 00:26:00;;;;;;;13.13;5.97;;;;;;;7.48;100.00;99093.22;4984831;28;20424;-83
2024/04/02 00:28:29;;;;;;;11.40;6.05;;;;;;;7.42;100.00;99080.09;4985577;28;20426;-82
2024/04/02 00:30:58;;;;;;;15.20;5.43;;;;;;;7.45;100.00;99087.59;4986035;28;20447;-82
2024/04/02 00:33:26;;;;;;;14.00;5.85;;;;;;;7.41;100.00;99078.47;4984324;28;20440;-82
2024/04/02 00:35:59;;;;;;;12.35;5.50;;;;;;;7.40;100.00;99091.22;4990475;28;20417;-80
2024/04/02 00:38:27;;;;;;;12.52;5.55;;;;;;;7.36;100.00;99098.31;4986433;28;20872;-83
2024/04/02 00:40:53;;;;;;;13.30;5.05;;;;;;;7.45;100.00;99098.44;4968352;28;20436;-82
2024/04/02 00:43:21;;;;;;;10.98;5.03;;;;;;;7.31;100.00;99092.97;4983417;28;20433;-82
2024/04/02 00:45:48;;;;;;;11.25;5.18;;;;;;;7.30;100.00;99100.28;4983114;28;20432;-83
2024/04/02 00:48:17;;;;;;;11.25;4.50;;;;;;;7.21;100.00;99099.38;4966670;28;20440;-83
2024/04/02 00:50:45;;;;;;;11.70;4.43;;;;;;;7.29;100.00;99100.59;4987309;28;20418;-82
2024/04/02 00:53:14;;;;;;;11.82;4.53;;;;;;;7.25;100.00;99089.56;4988747;28;20428;-81
2024/04/02 00:55:41;;;;;;;11.07;4.45;;;;;;;7.21;100.00;99095.84;4981400;28;20428;-83
2024/04/02 00:58:09;;;;;;;10.60;4.03;;;;;;;7.27;100.00;99092.75;4991806;28;20431;-83
2024/04/02 01:00:36;;;;;;;10.75;4.07;;;;;;;7.17;100.00;99100.25;4966372;28;20432;-82
2024/04/02 01:03:06;;;;;;;9.05;4.15;;;;;;;7.09;100.00;99099.03;4969270;28;20433;-83
2024/04/02 01:05:35;;;;;;;11.33;4.70;;;;;;;7.08;100.00;99106.31;4970485;28;20443;-83
2024/04/02 01:08:04;;;;;;;9.73;4.35;;;;;;;7.11;100.00;99096.81;4971941;28;20444;-83
2024/04/02 01:10:31;;;;;;;14.10;3.92;;;;;;;7.21;100.00;99099.38;4980683;28;20433;-83
2024/04/02 01:12:59;;;;;;;11.57;4.50;;;;;;;7.09;100.00;99107.16;4987023;28;20436;-84
2024/04/02 01:15:26;;;;;;;12.63;4.10;;;;;;;7.01;100.00;99110.53;4969493;28;20425;-84
2024/04/02 01:17:54;;;;;;;10.15;4.53;;;;;;;7.08;100.00;99106.31;4978569;28;21024;-81
2024/04/02 01:20:22;;;;;;;11.10;4.18;;;;;;;7.11;100.00;99113.88;4983573;28;20424;-83
2024/04/02 01:22:50;;;;;;;11.05;4.57;;;;;;;7.04;100.00;99112.63;4968884;28;20428;-83
2024/04/02 01:25:22;;;;;;;11.45;4.43;;;;;;;7.09;100.00;99107.94;4984090;28;20424;-81
2024/04/02 01:27:50;;;;;;;12.67;4.80;;;;;;;7.10;100.00;99114.97;4982862;28;20442;-83
2024/04/02 01:30:16;;;;;;;13.90;4.35;;;;;;;7.04;100.00;99113.44;4976413;28;20570;-83
2024/04/02 01:32:44;;;;;;;8.45;4.15;;;;;;;7.10;100.00;99119.59;4984845;28;20778;-83
2024/04/02 01:35:13;;;;;;;14.27;4.65;;;;;;;7.06;100.00;99123.97;4991785;28;20420;-83
2024/04/02 01:37:41;;;;;;;9.80;4.05;;;;;;;6.96;100.00;99119.50;4983276;28;20404;-83
2024/04/02 01:40:08;;;;;;;9.57;3.97;;;;;;;7.04;100.00;99123.44;4987551;28;20425;-83
2024/04/02 01:42:37;;;;;;;12.27;4.13;;;;;;;7.00;100.00;99131.34;4984771;28;20451;-83
2024/04/02 01:45:04;;;;;;;10.70;3.67;;;;;;;6.96;100.00;99133.84;4979229;28;20436;-83
2024/04/02 01:47:32;;;;;;;11.27;4.10;;;;;;;7.08;100.00;99129.88;4983942;28;20421;-83
2024/04/02 01:49:58;;;;;;;12.38;4.30;;;;;;;7.01;100.00;99140.28;4985618;28;20462;-83
2024/04/02 01:52:26;;;;;;;14.70;3.95;;;;;;;7.05;100.00;99138.59;4966781;28;20452;-82
2024/04/02 01:54:52;;;;;;;11.13;3.70;;;;;;;7.01;100.00;99132.94;4983501;28;20428;-83
2024/04/02 01:57:22;;;;;;;10.57;3.63;;;;;;;6.95;100.00;99137.63;4986686;28;20771;-82
2024/04/02 01:59:49;;;;;;;12.02;4.18;;;;;;;7.07;100.00;99145.31;4980967;28;20451;-81
2024/04/02 02:02:17;;;;;;;8.70;3.90;;;;;;;6.95;100.00;99142.25;4954174;28;20449;-83
2024/04/02 02:04:44;;;;;;;8.40;3.53;;;;;;;6.96;100.00;99146.56;4970454;28;20784;-83
2024/04/02 02:07:11;;;;;;;9.50;4.13;;;;;;;6.92;100.00;99143.66;4964081;28;20438;-84
2024/04/02 02:09:37;;;;;;;7.97;3.60;;;;;;;6.93;100.00;99145.25;4982244;28;21127;-83
2024/04/02 02:12:05;;;;;;;8.88;3.80;;;;;;;6.89;100.00;99151.53;4959594;28;21493;-82
2024/04/02 02:14:32;;;;;;;9.23;3.50;;;;;;;6.93;100.00;99144.44;4982902;28;20849;-82
2024/04/02 02:17:01;;;;;;;11.00;3.97;;;;;;;6.97;100.00;99142.75;4967158;28;20422;-83
2024/04/02 02:19:28;;;;;;;10.77;3.65;;;;;;;6.91;100.00;99143.94;4966395;28;20425;-83
2024/04/02 02:21:55;;;;;;;8.35;3.78;;;;;;;6.96;100.00;99144.66;4984346;28;20435;-81
2024/04/02 02:24:22;;;;;;;10.37;3.83;;;;;;;6.95;100.00;99153.06;4982284;28;20804;-83
2024/04/02 02:26:49;;;;;;;9.93;3.70;;;;;;;6.96;100.00;99146.56;4983591;28;20447;-82
2024/04/02 02:29:16;;;;;;;11.40;4.07;;;;;;;6.89;100.00;99152.34;4977737;28;20432;-82
2024/04/02 02:31:44;;;;;;;10.52;3.60;;;;;;;6.88;100.00;99144.53;4963448;28;20425;-82
2024/04/02 02:34:12;;;;;;;8.77;3.40;;;;;;;6.76;100.00;99158.47;4982294;28;20423;-83
2024/04/02 02:36:39;;;;;;;11.25;3.85;;;;;;;6.81;100.00;99150.31;4986082;28;20455;-83
2024/04/02 02:39:06;;;;;;;8.93;4.00;;;;;;;6.71;100.00;99151.25;4981180;28;20917;-81
2024/04/02 02:41:33;;;;;;;9.75;3.38;;;;;;;6.66;100.00;99156.72;4964367;28;20437;-84
2024/04/02 02:44:00;;;;;;;9.85;3.78;;;;;;;6.72;100.00;99162.84;4966392;28;20440;-84
2024/04/02 02:46:28;;;;;;;9.30;3.65;;;;;;;6.69;100.00;99169.66;4979031;28;20440;-83
2024/04/02 02:48:54;;;;;;;8.50;3.97;;;;;;;6.83;100.00;99168.94;4981607;28;20438;-81
2024/04/02 02:51:23;;;;;;;11.60;3.90;;;;;;;6.78;100.00;99170.63;4997701;28;20897;-83
2024/04/02 02:53:49;;;;;;;10.80;4.07;;;;;;;6.72;100.00;99169.06;4974699;28;20914;-83
2024/04/02 02:56:17;;;;;;;9.52;3.75;;;;;;;6.76;100.00;99167.38;4982379;28;20984;-81
2024/04/02 02:58:44;;;;;;;10.35;3.97;;;;;;;6.79;100.00;99172.22;4981089;28;20434;-83
2024/04/02 03:01:11;;;;;;;10.45;4.05;;;;;;;6.83;100.00;99177.03;4982815;28;20813;-81
2024/04/02 03:03:38;;;;;;;8.40;3.72;;;;;;;6.77;100.00;99173.63;4972235;28;20408;-83
2024/04/02 03:06:06;;;;;;;10.20;3.80;;;;;;;6.72;100.00;99174.47;4964638;28;20439;-82
2024/04/02 03:08:34;;;;;;;10.15;3.78;;;;;;;6.73;100.00;99170.69;4965140;28;20432;-82
2024/04/02 03:11:03;;;;;;;10.65;3.90;;;;;;;6.73;100.00;99178.78;4963160;28;20443;-81
2024/04/02 03:13:30;;;;;;;10.93;4.00;;;;;;;6.86;100.00;99185.34;4981758;28;20427;-83
2024/04/02 03:15:58;;;;;;;9.17;4.17;;;;;;;6.85;100.00;99186.47;4983674;28;20424;-83
2024/04/02 03:18:24;;;;;;;10.65;4.18;;;;;;;6.88;100.00;99188.59;4984708;28;20418;-83
2024/04/02 03:20:52;;;;;;;9.25;4.28;;;;;;;6.83;100.00;99187.88;4972718;28;20451;-83
2024/04/02 03:23:19;;;;;;;11.32;4.15;;;;;;;6.80;100.00;99197.34;4973101;28;20765;-83
2024/04/02 03:25:54;;;;;;;9.60;4.30;;;;;;;6.80;100.00;99197.34;4967039;28;20428;-84
2024/04/02 03:28:20;;;;;;;8.95;4.22;;;;;;;6.77;100.00;99201.44;4986006;28;21078;-81
2024/04/02 03:30:48;;;;;;;10.48;4.20;;;;;;;6.87;100.00;99192.38;4970804;28;20433;-83
2024/04/02 03:33:15;;;;;;;11.43;4.90;;;;;;;7.00;100.00;99200.88;4969812;28;20443;-83
2024/04/02 03:35:43;;;;;;;10.77;4.78;;;;;;;6.95;100.00;99199.06;4973085;28;20427;-82
2024/04/02 03:38:11;;;;;;;10.40;4.38;;;;;;;6.87;100.00;99202.41;4983566;28;20433;-83
2024/04/02 03:40:40;;;;;;;14.90;5.47;;;;;;;6.87;100.00;99205.91;4984915;28;20418;-83
2024/04/02 03:43:09;;;;;;;11.90;4.93;;;;;;;6.89;100.00;99202.91;4981990;28;20424;-82
2024/04/02 03:45:40;;;;;;;10.77;4.95;;;;;;;6.93;100.00;99207.47;4967535;28;20434;-83
2024/04/02 03:48:08;;;;;;;12.40;4.95;;;;;;;6.96;100.00;99200.63;4984603;28;20494;-81
2024/04/02 03:50:36;;;;;;;12.48;5.78;;;;;;;6.86;100.00;99209.69;4968520;28;20434;-81
2024/04/02 03:53:03;;;;;;;17.25;6.00;;;;;;;6.95;100.00;99220.69;4984231;28;20440;-83
2024/04/02 03:55:34;;;;;;;16.88;5.95;;;;;;;6.97;100.00;99204.97;4986860;28;20421;-83
2024/04/02 03:58:00;;;;;;;15.00;6.25;;;;;;;6.96;100.00;99220.41;4985311;28;20433;-82
2024/04/02 04:00:29;;;;;;;14.18;5.82;;;;;;;6.95;100.00;99216.06;4983265;28;20424;-83
2024/04/02 04:02:56;;;;;;;15.88;6.32;;;;;;;7.05;100.00;99220.53;4984017;28;20436;-84
2024/04/02 04:05:24;;;;;;;14.05;6.05;;;;;;;7.02;100.00;99225.75;4981716;28;20428;-83
2024/04/02 04:07:51;;;;;;;15.45;6.80;;;;;;;7.14;100.00;99218.78;4967493;28;20938;-81
2024/04/02 04:10:19;;;;;;;14.52;6.40;;;;;;;7.02;100.00;99225.75;4984379;28;20423;-83
2024/04/02 04:12:46;;;;;;;13.05;6.80;;;;;;;7.03;100.00;99216.50;4966343;28;20449;-82
2024/04/02 04:15:13;;;;;;;15.38;7.10;;;;;;;7.02;100.00;99226.53;4983854;28;20436;-83
2024/04/02 04:17:41;;;;;;;13.40;6.63;;;;;;;7.11;100.00;99229.38;4983315;28;20793;-82
2024/04/02 04:20:10;;;;;;;15.23;7.70;;;;;;;7.14;100.00;99229.63;4984974;28;20433;-82
2024/04/02 04:22:36;;;;;;;14.33;7.10;;;;;;;7.11;100.00;99229.38;4967203;28;20433;-82
2024/04/02 04:25:05;;;;;;;16.67;6.97;;;;;;;7.19;100.00;99233.34;4969599;28;20459;-83
2024/04/02 04:27:33;;;;;;;15.60;7.50;;;;;;;7.13;100.00;99240.72;4980867;28;20913;-83
2024/04/02 04:30:01;;;;;;;13.32;7.00;;;;;;;7.21;100.00;99236.53;4986125;28;20436;-82
2024/04/02 04:32:28;;;;;;;14.10;7.38;;;;;;;7.23;100.00;99229.75;4985715;28;20440;-83
2024/04/02 04:34:57;;;;;;;13.77;7.07;;;;;;;7.27;100.00;99236.19;4983673;28;20416;-83
2024/04/02 04:37:23;;;;;;;14.20;7.28;;;;;;;7.21;100.00;99240.06;4986377;28;20431;-84
2024/04/02 04:39:51;;;;;;;12.60;7.20;;;;;;;7.21;100.00;99239.25;4968868;28;20436;-84
2024/04/02 04:42:17;;;;;;;13.32;7.15;;;;;;;7.21;100.00;99242.78;4968062;28;20435;-83
2024/04/02 04:44:46;;;;;;;14.63;7.28;;;;;;;7.31;100.00;99234.50;4968972;28;20438;-84
2024/04/02 04:47:14;;;;;;;12.57;7.00;;;;;;;7.24;100.00;99230.56;4969750;28;20904;-84
2024/04/02 04:49:42;;;;;;;13.93;7.23;;;;;;;7.24;100.00;99241.38;4984316;28;20426;-83
2024/04/02 04:52:10;;;;;;;17.65;7.47;;;;;;;7.20;100.00;99251.19;4986837;28;20427;-83
2024/04/02 04:54:38;;;;;;;12.70;7.28;;;;;;;7.28;100.00;99250.53;4986347;28;20432;-84
2024/04/02 04:57:05;;;;;;;14.85;6.90;;;;;;;7.23;100.00;99251.41;4983243;28;20442;-85
2024/04/02 04:59:32;;;;;;;14.53;7.43;;;;;;;7.25;100.00;99249.22;4981306;28;20492;-84
2024/04/02 05:01:59;;;;;;;14.82;7.53;;;;;;;7.35;100.00;99266.38;4983641;28;21130;-84
2024/04/02 05:04:26;;;;;;;14.20;7.63;;;;;;;7.25;100.00;99262.75;4966937;28;20425;-85
2024/04/02 05:06:53;;;;;;;13.02;7.40;;;;;;;7.31;100.00;99258.84;4963835;28;20437;-84
2024/04/02 05:09:22;;;;;;;14.90;7.63;;;;;;;7.43;100.00;99260.31;4980517;28;20441;-85
2024/04/02 05:11:49;;;;;;;16.27;7.30;;;;;;;7.41;100.00;99265.22;4985208;28;20433;-83
2024/04/02 05:14:16;;;;;;;14.85;7.47;;;;;;;7.35;100.00;99269.09;4978404;28;21134;-84
2024/04/02 05:16:45;;;;;;;15.95;7.30;;;;;;;7.39;100.00;99264.69;4966698;28;20438;-84
2024/04/02 05:19:16;;;;;;;15.45;8.07;;;;;;;7.35;100.00;99272.63;4970712;28;20439;-85
2024/04/02 05:21:42;;;;;;;16.27;8.32;;;;;;;7.31;100.00;99266.19;4981762;28;20443;-84
2024/04/02 05:24:10;;;;;;;14.77;8.25;;;;;;;7.29;100.00;99268.34;4970871;28;20949;-82
2024/04/02 05:26:37;;;;;;;14.70;8.50;;;;;;;7.37;100.00;99275.03;4983868;28;20425;-81
2024/04/02 05:29:05;;;;;;;16.03;8.70;;;;;;;7.48;100.00;99271.88;4984845;28;21298;-83
2024/04/02 05:31:31;;;;;;;15.07;9.00;;;;;;;7.43;100.00;99287.38;4979034;28;20796;-83
2024/04/02 05:33:59;;;;;;;15.98;8.90;;;;;;;7.40;100.00;99283.38;4964421;28;20449;-82
2024/04/02 05:36:25;;;;;;;15.55;9.23;;;;;;;7.41;100.00;99284.16;4990730;28;20432;-82
2024/04/02 05:38:55;;;;;;;16.48;8.55;;;;;;;7.55;100.00;99295.84;4984216;28;20443;-82
2024/04/02 05:41:24;;;;;;;16.07;8.40;;;;;;;7.41;100.00;99295.00;4979943;28;20494;-83
2024/04/02 05:43:53;;;;;;;16.42;8.90;;;;;;;7.53;100.00;99295.34;4979862;28;20432;-83
2024/04/02 05:46:19;;;;;;;14.18;8.77;;;;;;;7.48;100.00;99293.53;4968037;28;20892;-83
2024/04/02 05:48:47;;;;;;;16.55;8.40;;;;;;;7.49;100.00;99305.97;4987787;28;20437;-82
2024/04/02 05:51:13;;;;;;;19.08;9.18;;;;;;;7.52;100.00;99309.97;4969746;28;20436;-82
2024/04/02 05:53:43;;;;;;;15.00;9.30;;;;;;;7.49;100.00;99303.25;4974695;28;20774;-82
2024/04/02 05:56:09;;;;;;;17.25;9.88;;;;;;;7.54;100.00;99307.81;4987819;28;20500;-82
2024/04/02 05:58:37;;;;;;;21.27;10.87;;;;;;;7.56;100.00;99304.81;4982726;28;20445;-82
2024/04/02 06:01:06;;;;;;;16.63;10.20;;;;;;;7.64;100.00;99298.72;4972402;28;20941;-83
2024/04/02 06:03:33;;;;;;;19.95;10.45;;;;;;;7.49;100.00;99305.16;4984233;28;20433;-80
2024/04/02 06:06:00;;;;;;;20.98;10.60;;;;;;;7.60;100.00;99322.88;4983525;28;20422;-81
2024/04/02 06:08:27;;;;;;;17.45;9.95;;;;;;;7.67;100.00;99314.38;4973670;28;20432;-81
2024/04/02 06:10:54;;;;;;;21.25;10.15;;;;;;;7.59;100.00;99312.34;4990274;28;20421;-82
2024/04/02 06:13:30;;;;;;;16.83;8.82;;;;;;;7.63;100.00;99307.94;4973772;28;20457;-82
2024/04/02 06:15:56;;;;;;;16.83;9.52;;;;;;;7.66;100.00;99319.00;4984381;28;20423;-81
2024/04/02 06:18:25;;;;;;;14.50;9.40;;;;;;;7.59;100.00;99318.53;4981698;28;20794;-81
2024/04/02 06:20:58;;;;;;;18.95;11.27;;;;;;;7.56;100.00;99321.03;4973491;28;20429;-82
2024/04/02 06:23:26;;;;;;;23.17;11.68;;;;;;;7.60;100.00;99314.75;4989306;28;20787;-82
2024/04/02 06:25:52;;;;;;;22.52;11.85;;;;;;;7.58;100.00;99321.53;4990500;28;20405;-80
2024/04/02 06:28:19;;;;;;;20.30;12.33;;;;;;;7.61;100.00;99315.53;4972327;28;20430;-81
2024/04/02 06:30:46;;;;;;;20.90;13.10;;;;;;;7.56;100.00;99316.41;4973330;28;20444;-81
2024/04/02 06:33:14;;;;;;;24.80;12.63;;;;;;;7.63;100.00;99321.47;4924599;28;20451;-80
2024/04/02 06:35:42;;;;;;;20.10;12.20;;;;;;;7.70;100.00;99321.91;4976253;28;20429;-81
2024/04/02 06:38:09;;;;;;;18.98;11.00;;;;;;;7.73;100.00;99315.09;4951544;28;20480;-81
2024/04/02 06:40:36;;;;;;;19.30;11.60;;;;;;;7.71;100.00;99320.81;4969896;28;22083;-81
2024/04/02 06:43:03;;;;;;;17.60;11.18;;;;;;;7.75;100.00;99318.34;4963326;28;20937;-80
2024/04/02 06:45:30;;;;;;;21.55;12.07;;;;;;;7.77;100.00;99316.91;4954489;28;21007;-80
2024/04/02 06:47:58;;;;;;;22.52;11.70;;;;;;;7.79;100.00;99328.28;4969616;28;20424;-80
2024/04/02 06:50:24;;;;;;;22.17;12.32;;;;;;;7.70;100.00;99326.53;4960493;28;20439;-79
2024/04/02 06:52:53;;;;;;;19.90;12.37;;;;;;;7.84;100.00;99332.78;4959020;28;20432;-80
2024/04/02 06:55:20;;;;;;;23.33;13.03;;;;;;;7.82;100.00;99333.09;4963976;28;20435;-81
2024/04/02 06:57:47;;;;;;;22.52;12.98;;;;;;;7.75;100.00;99329.97;4960941;28;20439;-80
2024/04/02 07:00:16;;;;;;;19.73;12.50;;;;;;;7.93;100.00;99338.38;4962105;28;21066;-80
2024/04/02 07:02:43;;;;;;;20.95;12.98;;;;;;;7.95;100.00;99347.00;4942209;28;20443;-80
2024/04/02 07:05:10;;;;;;;20.85;12.75;;;;;;;8.02;100.00;99344.69;4941447;28;20793;-79
2024/04/02 07:07:37;;;;;;;20.42;12.65;;;;;;;7.96;100.00;99343.19;4941899;28;20451;-80
2024/04/02 07:10:06;;;;;;;23.95;12.60;;;;;;;7.88;100.00;99350.06;4943385;28;20439;-80
2024/04/02 07:12:33;;;;;;;24.25;12.50;;;;;;;7.94;100.00;99346.19;4957030;28;21216;-81
2024/04/02 07:15:00;;;;;;;20.58;12.65;;;;;;;8.00;100.00;99353.13;4946263;28;20429;-79
2024/04/02 07:17:27;;;;;;;16.90;11.70;;;;;;;8.00;100.00;99345.00;4959611;28;20424;-80
2024/04/02 07:19:54;;;;;;;18.63;10.82;;;;;;;8.07;100.00;99349.25;4959873;28;20454;-80
2024/04/02 07:22:21;;;;;;;17.23;11.20;;;;;;;8.01;100.00;99351.25;4956603;28;20444;-80
2024/04/02 07:24:48;;;;;;;19.30;11.38;;;;;;;8.04;100.00;99364.19;4944418;28;20440;-80
2024/04/02 07:27:17;;;;;;;19.15;11.15;;;;;;;8.03;100.00;99364.50;4962125;28;20421;-79
2024/04/02 07:29:44;;;;;;;15.98;9.90;;;;;;;8.04;100.00;99360.66;4959868;28;20424;-81
2024/04/02 07:32:11;;;;;;;17.75;9.70;;;;;;;8.13;100.00;99367.03;4943704;28;21165;-80
2024/04/02 07:34:38;;;;;;;16.65;9.95;;;;;;;8.20;100.00;99372.06;4965706;28;20424;-79
2024/04/02 07:37:05;;;;;;;16.10;10.15;;;;;;;8.17;100.00;99368.03;4942741;28;20428;-81
2024/04/02 07:39:31;;;;;;;15.17;8.93;;;;;;;8.20;100.00;99372.88;4961572;28;20421;-81
2024/04/02 07:41:59;;;;;;;16.38;9.77;;;;;;;8.18;100.00;99373.16;4957109;28;20824;-80
2024/04/02 07:44:27;;;;;;;18.58;10.48;;;;;;;8.18;100.00;99381.28;4964887;28;20440;-82
2024/04/02 07:46:54;;;;;;;17.15;10.85;;;;;;;8.15;100.00;99378.38;4964377;28;20936;-80
2024/04/02 07:49:21;;;;;;;17.80;9.90;;;;;;;8.20;100.00;99378.28;4957559;28;20440;-81
2024/04/02 07:51:48;;;;;;;15.95;9.68;;;;;;;8.21;100.00;99382.63;4958502;28;21082;-80
2024/04/02 07:54:15;;;;;;;17.02;9.32;;;;;;;8.34;100.00;99376.44;4960313;28;20432;-80
2024/04/02 07:56:42;;;;;;;16.98;9.55;;;;;;;8.24;100.00;99390.16;4967782;28;20432;-80
2024/04/02 07:59:08;;;;;;;18.30;9.55;;;;;;;8.32;100.00;99394.09;4960653;28;20440;-81
2024/04/02 08:01:37;;;;;;;17.80;9.30;;;;;;;8.29;100.00;99394.69;4963902;28;20424;-79
2024/04/02 08:04:05;;;;;;;16.00;10.27;;;;;;;8.32;100.00;99403.03;4948180;28;20909;-80
2024/04/02 08:06:32;;;;;;;17.85;10.43;;;;;;;8.27;100.00;99408.56;4962839;28;20428;-81
2024/04/02 08:08:59;;;;;;;15.90;9.50;;;;;;;8.21;100.00;99407.00;4947667;28;20425;-81
2024/04/02 08:11:26;;;;;;;18.33;10.23;;;;;;;8.25;100.00;99415.38;4965428;28;20428;-81
2024/04/02 08:13:53;;;;;;;17.60;10.70;;;;;;;8.24;100.00;99425.38;4950813;28;20719;-79
2024/04/02 08:16:22;;;;;;;18.55;10.15;;;;;;;8.35;100.00;99426.03;4951840;28;20782;-80
2024/04/02 08:18:50;;;;;;;18.38;10.32;;;;;;;8.33;100.00;99429.03;4961710;28;21207;-81
2024/04/02 08:21:18;;;;;;;15.95;10.18;;;;;;;8.27;100.00;99434.84;4966275;28;20427;-82
2024/04/02 08:23:44;;;;;;;16.33;9.88;;;;;;;8.27;100.00;99426.69;4949265;28;20451;-80
2024/04/02 08:26:12;;;;;;;16.10;10.18;;;;;;;8.26;100.00;99425.06;4955819;28;20775;-80
2024/04/02 08:28:38;;;;;;;18.65;10.25;;;;;;;8.28;100.00;99450.00;4949313;28;20912;-81
2024/04/02 08:31:06;;;;;;;16.33;9.73;;;;;;;8.23;100.00;99453.59;4950813;28;21874;-80
2024/04/02 08:33:33;;;;;;;17.55;9.40;;;;;;;8.20;100.00;99446.03;4935674;28;20421;-78
2024/04/02 08:36:02;;;;;;;18.48;9.73;;;;;;;8.21;100.00;99444.94;4960474;28;22389;-83
2024/04/02 08:38:28;;;;;;;17.00;9.73;;;;;;;8.29;100.00;99457.03;4966305;28;22039;-82
2024/04/02 08:41:03;;;;;;;16.02;9.88;;;;;;;8.27;100.00;99451.91;4961503;28;20425;-83
2024/04/02 08:43:30;;;;;;;15.43;9.43;;;;;;;8.27;100.00;99451.09;4960165;28;20432;-84
2024/04/02 08:45:58;;;;;;;18.55;9.18;;;;;;;8.32;100.00;99459.94;4962022;28;21876;-82
2024/04/02 08:48:25;;;;;;;16.27;9.32;;;;;;;8.32;100.00;99459.16;4965132;28;20428;-83
2024/04/02 08:50:53;;;;;;;15.07;9.40;;;;;;;8.40;100.00;99444.13;4944197;28;20460;-81
2024/04/02 08:53:21;;;;;;;15.70;9.23;;;;;;;8.50;100.00;99452.91;4947933;28;20432;-82
2024/04/02 08:55:48;;;;;;;15.77;9.15;;;;;;;8.47;100.00;99469.78;4950362;28;20428;-83
2024/04/02 08:58:15;;;;;;;14.88;8.57;;;;;;;8.48;100.00;99467.91;4961357;28;20896;-81
2024/04/02 09:00:43;;;;;;;14.45;9.00;;;;;;;8.47;100.00;99474.41;4944832;28;20435;-83
2024/04/02 09:03:12;;;;;;;15.93;8.07;;;;;;;8.54;100.00;99468.63;4966775;28;20443;-83
2024/04/02 09:05:40;;;;;;;13.90;7.97;;;;;;;8.61;100.00;99466.31;4962377;28;20455;-83
2024/04/02 09:08:09;;;;;;;18.85;8.55;;;;;;;8.69;100.00;99473.78;4987376;28;20512;-82
2024/04/02 09:10:37;;;;;;;14.93;8.18;;;;;;;8.75;100.00;99482.63;4965682;28;20444;-82
2024/04/02 09:13:04;;;;;;;13.77;8.55;;;;;;;8.90;100.00;99474.22;4947857;28;20436;-83
2024/04/02 09:15:32;;;;;;;13.32;7.90;;;;;;;9.06;100.00;99482.09;4967015;28;20431;-82
2024/04/02 09:17:58;;;;;;;15.32;8.00;;;;;;;9.20;100.00;99477.50;4946737;28;21834;-83
2024/04/02 09:20:25;;;;;;;17.67;7.93;;;;;;;9.40;100.00;99472.78;4949779;28;21675;-84
2024/04/02 09:22:52;;;;;;;14.38;7.97;;;;;;;9.50;100.00;99484.25;4963742;28;20420;-84
2024/04/02 09:25:21;;;;;;;13.98;7.88;;;;;;;9.73;100.00;99475.41;4962417;28;20424;-82
2024/04/02 09:27:50;;;;;;;14.00;8.00;;;;;;;9.76;100.00;99477.50;4960634;28;21180;-83
2024/04/02 09:30:18;;;;;;;12.52;7.90;;;;;;;10.06;100.00;99486.13;4962253;28;20432;-82
2024/04/02 09:32:46;;;;;;;12.13;7.07;;;;;;;9.92;100.00;99483.44;4919158;28;20440;-82
2024/04/02 09:35:14;;;;;;;12.30;7.50;;;;;;;9.86;100.00;99478.09;4946274;28;20797;-82
2024/04/02 09:37:45;;;;;;;13.60;7.47;;;;;;;9.92;100.00;99486.94;4961594;28;20432;-82
2024/04/02 09:40:13;;;;;;;12.00;6.93;;;;;;;9.98;100.00;99482.97;4947514;28;20435;-83
2024/04/02 09:42:47;;;;;;;12.10;6.40;;;;;;;9.85;100.00;99481.13;4946220;28;20429;-82
2024/04/02 09:45:18;;;;;;;13.05;6.43;;;;;;;10.00;100.00;99490.88;4963440;28;20421;-84
2024/04/02 09:47:46;;;;;;;14.38;6.65;;;;;;;10.02;100.00;99497.56;4955492;28;20424;-84
2024/04/02 09:50:13;;;;;;;11.38;6.38;;;;;;;10.08;100.00;99492.03;4944952;28;20432;-82
2024/04/02 09:52:42;;;;;;;12.85;6.10;;;;;;;10.17;100.00;99495.66;4968666;28;20424;-83
2024/04/02 09:55:10;;;;;;;10.90;5.78;;;;;;;10.01;100.00;99493.28;4982917;28;20433;-83
2024/04/02 09:57:39;;;;;;;9.90;4.90;;;;;;;10.09;100.00;99489.00;4962470;28;20420;-83
2024/04/02 10:00:08;;;;;;;11.05;5.20;;;;;;;10.16;100.00;99496.75;4966551;28;21197;-82
2024/04/02 10:02:40;;;;;;;11.00;5.28;;;;;;;10.24;100.00;99496.03;4969989;28;21331;-82
2024/04/02 10:05:08;;;;;;;9.20;4.97;;;;;;;10.36;100.00;99509.91;4962971;28;20435;-82
2024/04/02 10:07:42;;;;;;;10.30;4.75;;;;;;;10.51;100.00;99500.59;4965743;28;20424;-82
2024/04/02 10:10:08;;;;;;;9.73;4.80;;;;;;;10.61;100.00;99505.00;4959805;28;20429;-84
2024/04/02 10:12:36;;;;;;;9.40;5.10;;;;;;;10.70;100.00;99510.50;4962725;28;20444;-83
2024/04/02 10:15:04;;;;;;;9.60;4.57;;;;;;;10.67;100.00;99516.56;4968361;28;20421;-83
2024/04/02 10:17:35;;;;;;;9.32;4.70;;;;;;;10.65;100.00;99516.06;4967551;28;20433;-83
2024/04/02 10:20:15;;;;;;;8.82;4.70;;;;;;;10.74;100.00;99516.13;4946239;28;20459;-83
2024/04/02 10:22:43;;;;;;;10.95;4.60;;;;;;;10.78;100.00;99519.84;4959658;28;20767;-81
2024/04/02 10:25:12;;;;;;;10.73;4.80;;;;;;;10.91;100.00;99524.41;4962461;28;20437;-82
2024/04/02 10:27:43;;;;;;;10.65;4.43;;;;;;;10.77;100.00;99531.84;4961817;28;20437;-81
2024/04/02 10:30:17;;;;;;;9.63;5.28;;;;;;;10.71;100.00;99534.66;4965886;28;21983;-81
2024/04/02 10:32:44;;;;;;;11.50;5.63;;;;;;;11.03;100.00;99529.28;4932669;28;20451;-81
2024/04/02 10:35:20;;;;;;;14.95;4.88;;;;;;;10.85;100.00;99528.38;4959839;28;20937;-81
2024/04/02 10:37:49;;;;;;;10.57;5.18;;;;;;;11.14;100.00;99521.66;4959577;28;20416;-82
2024/04/02 10:40:16;;;;;;;9.15;4.72;;;;;;;11.14;100.00;99532.56;4961203;28;20433;-82
2024/04/02 10:42:44;;;;;;;9.00;4.63;;;;;;;10.97;100.00;99534.06;4948593;28;20448;-82
2024/04/02 10:45:10;;;;;;;8.98;4.28;;;;;;;10.97;100.00;99512.28;4946328;28;20463;-82
2024/04/02 10:47:45;;;;;;;7.40;4.00;;;;;;;10.88;100.00;99541.34;4946983;28;20471;-81
2024/04/02 10:50:12;;;;;;;9.80;4.25;;;;;;;11.17;100.00;99534.66;4961333;28;20877;-81
2024/04/02 10:52:41;;;;;;;7.97;3.92;;;;;;;11.40;100.00;99532.69;4961438;28;22198;-81
2024/04/02 10:55:08;;;;;;;9.98;4.10;;;;;;;11.58;100.00;99534.34;4964770;28;20429;-82
2024/04/02 10:57:36;;;;;;;10.95;3.72;;;;;;;11.70;100.00;99543.88;4979122;28;20421;-82
2024/04/02 11:00:05;;;;;;;7.70;3.30;;;;;;;11.66;100.00;99538.25;4951073;28;20420;-82
2024/04/02 11:02:33;;;;;;;8.00;3.20;;;;;;;11.68;100.00;99540.66;4963488;28;20432;-82
2024/04/02 11:05:00;;;;;;;6.43;2.70;;;;;;;11.70;100.00;99536.50;4966296;28;20428;-81
2024/04/02 11:07:28;;;;;;;7.53;2.80;;;;;;;11.79;100.00;99539.25;4964120;28;20437;-82
2024/04/02 11:09:56;;;;;;;7.60;2.60;;;;;;;11.67;100.00;99528.13;4958740;28;21116;-81
2024/04/02 11:12:24;;;;;;;7.07;2.50;;;;;;;11.76;100.00;99531.69;4947048;28;20444;-81
2024/04/02 11:14:52;;;;;;;6.68;2.10;;;;;;;11.40;100.00;99535.41;4948465;28;20425;-81
2024/04/02 11:17:20;;;;;;;9.75;2.20;;;;;;;11.36;100.00;99527.06;4965658;28;20420;-82
2024/04/02 11:19:47;;;;;;;7.22;2.10;;;;;;;11.28;100.00;99546.09;4962594;28;20459;-84
2024/04/02 11:25:11;;;;;;;5.85;2.10;;;;;;;11.49;100.00;99532.72;4947271;28;20444;-82
2024/04/02 11:27:39;;;;;;;7.70;2.63;;;;;;;11.55;100.00;99545.88;4949379;28;20840;-83
2024/04/02 11:30:08;;;;;;;10.27;3.03;;;;;;;11.58;100.00;99547.19;4966930;28;20845;-82